createdAt,value
2023-01-26T00:01:48.071Z,10.98
2023-01-26T00:04:16.054Z,10.90
2023-01-26T00:06:43.941Z,11.52
2023-01-26T00:09:16.332Z,10.60
2023-01-26T00:11:45.571Z,10.50
2023-01-26T00:14:13.488Z,11.25
2023-01-26T00:16:41.474Z,11.43
2023-01-26T00:19:09.308Z,11.63
2023-01-26T00:21:37.343Z,11.63
2023-01-26T00:24:05.673Z,12.32
2023-01-26T00:26:33.612Z,11.73
2023-01-26T00:29:02.835Z,12.60
2023-01-26T00:31:30.965Z,11.90
2023-01-26T00:33:59.041Z,11.27
2023-01-26T00:36:27.724Z,11.77
2023-01-26T00:38:55.577Z,12.30
2023-01-26T00:41:40.929Z,11.60
2023-01-26T00:44:10.403Z,11.30
2023-01-26T00:46:38.779Z,11.80
2023-01-26T00:49:06.739Z,11.75
2023-01-26T00:51:34.749Z,12.32
2023-01-26T00:54:02.628Z,11.60
2023-01-26T00:56:30.523Z,11.88
2023-01-26T00:58:58.476Z,11.15
2023-01-26T01:01:27.813Z,11.57
2023-01-26T01:03:55.793Z,11.57
2023-01-26T01:06:23.681Z,11.70
2023-01-26T01:08:51.666Z,12.30
2023-01-26T01:11:19.585Z,11.32
2023-01-26T01:13:47.507Z,9.75
2023-01-26T01:16:16.750Z,11.35
2023-01-26T01:18:46.343Z,11.68
2023-01-26T01:21:16.544Z,11.00
2023-01-26T01:23:45.053Z,10.68
2023-01-26T01:26:14.091Z,10.93
2023-01-26T01:28:42.598Z,11.10
2023-01-26T01:31:12.794Z,10.32
2023-01-26T01:36:12.675Z,11.43
2023-01-26T01:38:40.780Z,10.57
2023-01-26T01:41:09.793Z,11.18
2023-01-26T01:43:38.666Z,9.80
2023-01-26T01:46:10.972Z,9.20
2023-01-26T01:48:46.298Z,8.13
2023-01-26T01:51:20.873Z,9.45
2023-01-26T01:53:53.361Z,8.50
2023-01-26T01:56:24.954Z,7.03
2023-01-26T01:58:56.465Z,8.07
2023-01-26T02:01:25.376Z,7.95
2023-01-26T02:03:57.945Z,7.97
2023-01-26T02:06:32.022Z,7.22
2023-01-26T02:09:00.101Z,8.10
2023-01-26T02:11:34.663Z,7.50
2023-01-26T02:14:05.804Z,7.18
2023-01-26T02:16:33.889Z,7.03
2023-01-26T02:19:02.176Z,6.47
2023-01-26T02:21:31.962Z,6.47
2023-01-26T02:24:12.269Z,6.65
2023-01-26T02:29:12.251Z,6.55
2023-01-26T02:31:41.492Z,6.70
2023-01-26T02:34:09.475Z,6.50
2023-01-26T02:36:40.379Z,6.25
2023-01-26T02:39:26.207Z,6.70
2023-01-26T02:42:13.990Z,6.88
2023-01-26T02:44:44.435Z,5.97
2023-01-26T02:47:13.722Z,6.70
2023-01-26T02:49:50.826Z,6.75
2023-01-26T02:52:20.680Z,6.32
2023-01-26T02:55:06.126Z,6.68
2023-01-26T02:57:35.502Z,6.72
2023-01-26T03:00:04.652Z,6.27
2023-01-26T03:02:32.602Z,6.20
2023-01-26T03:05:00.450Z,6.78
2023-01-26T03:07:28.526Z,5.95
2023-01-26T03:09:58.797Z,5.75
2023-01-26T03:15:13.059Z,4.90
2023-01-26T03:17:40.940Z,4.97
2023-01-26T03:20:27.815Z,4.70
2023-01-26T03:23:09.905Z,4.38
2023-01-26T03:25:55.802Z,3.90
2023-01-26T03:28:24.146Z,3.60
2023-01-26T03:30:56.004Z,4.20
2023-01-26T03:33:24.338Z,3.55
2023-01-26T03:35:55.045Z,3.15
2023-01-26T03:38:23.064Z,4.30
2023-01-26T03:41:08.475Z,3.30
2023-01-26T03:43:53.558Z,3.47
2023-01-26T03:46:43.383Z,3.80
2023-01-26T03:49:28.722Z,3.10
2023-01-26T03:52:13.800Z,3.30
2023-01-26T03:54:59.589Z,3.17
2023-01-26T03:57:30.608Z,3.17
2023-01-26T03:59:58.613Z,3.10
2023-01-26T04:02:47.184Z,3.17
2023-01-26T04:05:34.456Z,3.00
2023-01-26T04:08:24.345Z,3.33
2023-01-26T04:10:52.782Z,2.70
2023-01-26T04:13:38.603Z,2.67
2023-01-26T04:16:24.752Z,2.80
2023-01-26T04:19:11.692Z,2.70
2023-01-26T04:21:42.696Z,2.75
2023-01-26T04:24:16.715Z,2.58
2023-01-26T04:26:45.394Z,2.97
2023-01-26T04:29:15.528Z,3.85
2023-01-26T04:31:44.714Z,3.65
2023-01-26T04:34:17.147Z,2.85
2023-01-26T04:36:45.123Z,2.55
2023-01-26T04:39:13.069Z,2.55
2023-01-26T04:41:42.411Z,2.30
2023-01-26T04:44:10.481Z,2.90
2023-01-26T04:46:38.451Z,2.80
2023-01-26T04:49:06.501Z,2.40
2023-01-26T04:51:36.204Z,2.38
2023-01-26T04:54:04.246Z,2.40
2023-01-26T04:56:34.208Z,2.95
2023-01-26T04:59:04.819Z,2.95
2023-01-26T05:01:33.360Z,3.83
2023-01-26T05:04:02.127Z,2.42
2023-01-26T05:06:30.333Z,3.38
2023-01-26T05:09:00.061Z,2.55
2023-01-26T05:11:27.966Z,2.20
2023-01-26T05:13:55.944Z,2.45
2023-01-26T05:16:24.045Z,2.63
2023-01-26T05:18:51.888Z,1.90
2023-01-26T05:21:19.854Z,2.30
2023-01-26T05:23:47.855Z,2.60
2023-01-26T05:26:18.757Z,2.53
2023-01-26T05:28:46.747Z,2.13
2023-01-26T05:31:14.699Z,2.30
2023-01-26T05:33:42.623Z,2.00
2023-01-26T05:36:10.787Z,1.92
2023-01-26T05:38:40.383Z,2.08
2023-01-26T05:41:08.808Z,1.85
2023-01-26T05:43:38.124Z,2.40
2023-01-26T05:46:06.315Z,1.67
2023-01-26T05:48:34.227Z,2.03
2023-01-26T05:51:03.947Z,2.40
2023-01-26T05:53:32.039Z,2.05
2023-01-26T05:56:00.127Z,2.03
2023-01-26T05:58:28.106Z,1.60
2023-01-26T06:00:57.319Z,1.80
2023-01-26T06:03:25.292Z,2.13
2023-01-26T06:05:56.584Z,1.42
2023-01-26T06:08:24.523Z,1.50
2023-01-26T06:10:52.406Z,1.58
2023-01-26T06:13:20.273Z,1.35
2023-01-26T06:15:50.164Z,1.30
2023-01-26T06:18:19.507Z,1.45
2023-01-26T06:20:49.361Z,1.17
2023-01-26T06:23:20.123Z,1.48
2023-01-26T06:25:48.067Z,1.08
2023-01-26T06:28:15.917Z,1.30
2023-01-26T06:30:46.180Z,1.65
2023-01-26T06:35:45.514Z,0.90
2023-01-26T06:38:15.686Z,1.43
2023-01-26T06:43:11.322Z,0.75
2023-01-26T06:45:39.252Z,2.95
2023-01-26T06:48:09.653Z,0.98
2023-01-26T06:50:37.524Z,1.00
2023-01-26T06:53:26.928Z,0.60
2023-01-26T06:55:54.761Z,1.10
2023-01-26T06:58:22.652Z,0.50
2023-01-26T07:00:50.698Z,0.80
2023-01-26T07:03:18.632Z,0.60
2023-01-26T07:05:46.553Z,0.85
2023-01-26T07:08:15.915Z,1.08
2023-01-26T07:10:44.098Z,0.90
2023-01-26T07:13:12.093Z,1.13
2023-01-26T07:15:39.998Z,0.60
2023-01-26T07:18:07.965Z,0.70
2023-01-26T07:20:38.052Z,1.00
2023-01-26T07:23:05.929Z,0.90
2023-01-26T07:25:35.164Z,0.70
2023-01-26T07:28:03.087Z,0.80
2023-01-26T07:30:31.048Z,0.80
2023-01-26T07:33:00.866Z,0.70
2023-01-26T07:35:29.867Z,1.05
2023-01-26T07:37:59.046Z,0.55
2023-01-26T07:40:27.057Z,0.63
2023-01-26T07:42:56.920Z,0.60
2023-01-26T07:45:24.922Z,0.70
2023-01-26T07:47:53.275Z,1.33
2023-01-26T07:50:21.890Z,1.00
2023-01-26T07:52:52.626Z,0.60
2023-01-26T07:55:21.495Z,0.68
2023-01-26T07:57:49.555Z,0.50
2023-01-26T08:00:20.467Z,1.45
2023-01-26T08:02:50.981Z,0.50
2023-01-26T08:05:18.824Z,0.45
2023-01-26T08:07:46.970Z,0.70
2023-01-26T08:10:14.883Z,0.77
2023-01-26T08:12:42.856Z,0.52
2023-01-26T08:15:11.999Z,0.40
2023-01-26T08:17:41.251Z,0.30
2023-01-26T08:20:10.974Z,1.40
2023-01-26T08:22:39.037Z,0.70
2023-01-26T08:25:08.057Z,0.30
2023-01-26T08:27:35.994Z,0.50
2023-01-26T08:30:03.982Z,0.35
2023-01-26T08:32:32.014Z,0.50
2023-01-26T08:35:01.423Z,0.43
2023-01-26T08:37:29.391Z,0.38
2023-01-26T08:39:57.263Z,0.32
2023-01-26T08:42:30.568Z,0.30
2023-01-26T08:44:58.465Z,0.40
2023-01-26T08:47:26.445Z,0.50
2023-01-26T08:49:54.357Z,0.60
2023-01-26T08:52:23.589Z,0.50
2023-01-26T08:54:54.194Z,0.40
2023-01-26T08:57:22.050Z,0.60
2023-01-26T08:59:50.014Z,0.73
2023-01-26T09:02:17.987Z,0.47
2023-01-26T09:04:45.852Z,0.73
2023-01-26T09:07:13.768Z,0.47
2023-01-26T09:09:43.189Z,1.00
2023-01-26T09:12:11.116Z,0.70
2023-01-26T09:14:39.010Z,0.30
2023-01-26T09:17:06.952Z,0.30
2023-01-26T09:19:34.913Z,0.85
2023-01-26T09:22:02.858Z,0.40
2023-01-26T09:24:30.741Z,0.35
2023-01-26T09:27:00.101Z,0.40
2023-01-26T09:29:28.158Z,0.40
2023-01-26T09:31:56.299Z,0.50
2023-01-26T09:34:25.314Z,0.35
2023-01-26T09:36:53.273Z,0.90
2023-01-26T09:39:21.214Z,0.22
2023-01-26T09:42:13.252Z,0.73
2023-01-26T09:44:47.018Z,0.50
2023-01-26T09:47:27.063Z,0.95
2023-01-26T09:50:01.019Z,0.50
2023-01-26T09:52:32.010Z,0.60
2023-01-26T09:55:03.790Z,0.70
2023-01-26T09:57:38.557Z,0.50
2023-01-26T10:00:11.392Z,0.68
2023-01-26T10:02:52.572Z,0.57
2023-01-26T10:05:26.465Z,0.70
2023-01-26T10:07:54.427Z,0.98
2023-01-26T10:10:31.018Z,1.65
2023-01-26T10:13:01.085Z,0.82
2023-01-26T10:15:32.363Z,2.25
2023-01-26T10:18:05.801Z,0.47
2023-01-26T10:20:36.388Z,0.52
2023-01-26T10:23:11.942Z,0.63
2023-01-26T10:25:41.652Z,0.50
2023-01-26T10:28:16.599Z,1.48
2023-01-26T10:30:46.716Z,3.92
2023-01-26T10:33:19.274Z,7.35
2023-01-26T10:35:47.805Z,6.90
2023-01-26T10:38:43.890Z,4.05
2023-01-26T10:41:33.191Z,7.22
2023-01-26T10:44:04.939Z,5.83
2023-01-26T10:46:35.394Z,9.77
2023-01-26T10:49:14.502Z,7.38
2023-01-26T10:51:45.230Z,1.70
2023-01-26T10:54:23.403Z,1.98
2023-01-26T10:56:56.966Z,1.02
2023-01-26T10:59:32.035Z,0.50
2023-01-26T11:02:02.937Z,0.63
2023-01-26T11:04:31.579Z,0.40
2023-01-26T11:07:26.596Z,2.72
2023-01-26T11:09:55.564Z,0.60
2023-01-26T11:12:26.754Z,0.65
2023-01-26T11:15:04.098Z,1.25
2023-01-26T11:17:39.580Z,1.55
2023-01-26T11:20:22.313Z,0.80
2023-01-26T11:22:58.450Z,1.23
2023-01-26T11:25:30.194Z,7.72
2023-01-26T11:28:15.126Z,6.18
2023-01-26T11:31:08.440Z,2.40
2023-01-26T11:33:44.184Z,1.40
2023-01-26T11:36:22.773Z,1.27
2023-01-26T11:38:59.121Z,2.55
2023-01-26T11:41:39.300Z,1.52
2023-01-26T11:47:05.980Z,1.42
2023-01-26T11:49:51.564Z,0.47
2023-01-26T11:52:26.769Z,1.77
2023-01-26T11:55:07.712Z,0.30
2023-01-26T11:57:41.736Z,2.03
2023-01-26T12:00:29.420Z,0.70
2023-01-26T12:03:03.983Z,0.57
2023-01-26T12:05:42.311Z,0.50
2023-01-26T12:08:22.139Z,0.50
2023-01-26T12:10:57.153Z,0.50
2023-01-26T12:13:34.102Z,0.73
2023-01-26T12:16:10.044Z,0.60
2023-01-26T12:19:01.807Z,0.60
2023-01-26T12:21:38.300Z,0.47
2023-01-26T12:24:11.039Z,0.47
2023-01-26T12:26:54.325Z,0.25
2023-01-26T12:29:27.289Z,0.43
2023-01-26T12:32:00.107Z,0.60
2023-01-26T12:34:33.563Z,0.60
2023-01-26T12:37:25.428Z,0.43
2023-01-26T12:40:02.340Z,1.52
2023-01-26T12:42:43.680Z,0.70
2023-01-26T12:45:18.458Z,0.57
2023-01-26T12:47:51.009Z,0.93
2023-01-26T12:50:27.853Z,0.50
2023-01-26T12:53:01.586Z,0.77
2023-01-26T12:55:34.198Z,0.50
2023-01-26T12:58:04.084Z,0.47
2023-01-26T13:00:34.285Z,2.38
2023-01-26T13:05:36.104Z,13.18
2023-01-26T13:08:42.624Z,23.00
2023-01-26T13:11:10.947Z,17.58
2023-01-26T13:13:54.952Z,2.47
2023-01-26T13:16:33.583Z,1.10
2023-01-26T13:19:02.207Z,2.17
2023-01-26T13:21:44.467Z,1.55
2023-01-26T13:24:43.219Z,1.15
2023-01-26T13:27:30.049Z,1.15
2023-01-26T13:29:58.036Z,1.20
2023-01-26T13:33:03.012Z,1.30
2023-01-26T13:35:32.607Z,1.70
2023-01-26T13:38:12.911Z,1.02
2023-01-26T13:43:26.761Z,1.80
2023-01-26T13:46:08.280Z,0.88
2023-01-26T13:48:45.998Z,1.20
2023-01-26T13:51:17.482Z,1.15
2023-01-26T13:53:51.120Z,0.80
2023-01-26T13:56:25.849Z,0.60
2023-01-26T13:58:54.628Z,1.42
2023-01-26T14:01:22.812Z,0.47
2023-01-26T14:04:04.029Z,0.85
2023-01-26T14:06:32.243Z,0.98
2023-01-26T14:09:01.547Z,0.63
2023-01-26T14:11:31.851Z,0.50
2023-01-26T14:16:31.828Z,0.40
2023-01-26T14:19:07.665Z,0.40
2023-01-26T14:21:47.767Z,0.30
2023-01-26T14:24:17.354Z,0.30
2023-01-26T14:26:45.737Z,2.97
2023-01-26T14:29:19.476Z,0.50
2023-01-26T14:31:48.861Z,0.68
2023-01-26T14:34:22.303Z,0.90
2023-01-26T14:36:50.650Z,0.60
2023-01-26T14:39:21.945Z,0.70
2023-01-26T14:41:50.379Z,0.82
2023-01-26T14:44:18.339Z,1.35
2023-01-26T14:46:55.176Z,0.50
2023-01-26T14:49:31.781Z,1.63
2023-01-26T14:52:00.142Z,0.50
2023-01-26T14:54:33.262Z,0.60
2023-01-26T14:57:01.724Z,0.50
2023-01-26T14:59:35.647Z,0.75
2023-01-26T15:02:13.079Z,0.80
2023-01-26T15:04:43.072Z,8.43
2023-01-26T15:07:39.046Z,3.70
2023-01-26T15:10:27.781Z,1.30
2023-01-26T15:13:03.827Z,1.02
2023-01-26T15:15:34.319Z,1.00
2023-01-26T15:18:04.543Z,1.30
2023-01-26T15:20:43.787Z,1.10
2023-01-26T15:23:23.560Z,0.80
2023-01-26T15:25:53.352Z,0.90
2023-01-26T15:28:25.857Z,2.03
2023-01-26T15:30:57.366Z,1.08
2023-01-26T15:33:40.308Z,1.50
2023-01-26T15:36:21.681Z,1.17
2023-01-26T15:38:49.862Z,1.45
2023-01-26T15:41:19.266Z,0.98
2023-01-26T15:43:47.263Z,0.80
2023-01-26T15:46:18.167Z,1.33
2023-01-26T15:48:46.032Z,1.40
2023-01-26T15:51:14.763Z,1.13
2023-01-26T15:53:42.812Z,1.13
2023-01-26T15:56:13.941Z,1.00
2023-01-26T15:58:44.226Z,0.90
2023-01-26T16:01:16.888Z,0.90
2023-01-26T16:03:47.534Z,0.82
2023-01-26T16:06:22.160Z,1.00
2023-01-26T16:08:50.293Z,1.63
2023-01-26T16:11:18.541Z,0.80
2023-01-26T16:14:02.091Z,0.70
2023-01-26T16:16:31.682Z,0.70
2023-01-26T16:18:59.734Z,0.85
2023-01-26T16:21:33.762Z,0.82
2023-01-26T16:24:02.461Z,1.63
2023-01-26T16:26:33.705Z,0.80
2023-01-26T16:29:03.123Z,0.95
2023-01-26T16:31:33.569Z,0.55
2023-01-26T16:34:02.114Z,0.75
2023-01-26T16:36:30.161Z,1.05
2023-01-26T16:38:58.158Z,0.68
2023-01-26T16:41:27.890Z,1.05
2023-01-26T16:43:57.570Z,0.68
2023-01-26T16:46:27.120Z,0.60
2023-01-26T16:48:55.692Z,0.50
2023-01-26T16:51:26.903Z,0.80
2023-01-26T16:53:55.732Z,0.90
2023-01-26T16:56:24.978Z,0.70
2023-01-26T16:58:53.009Z,0.80
2023-01-26T17:01:23.245Z,1.05
2023-01-26T17:03:52.856Z,0.93
2023-01-26T17:06:20.893Z,0.88
2023-01-26T17:08:49.709Z,0.80
2023-01-26T17:11:19.519Z,0.85
2023-01-26T17:13:47.940Z,0.80
2023-01-26T17:16:18.195Z,0.75
2023-01-26T17:18:46.644Z,0.73
2023-01-26T17:21:17.683Z,0.82
2023-01-26T17:23:45.766Z,1.10
2023-01-26T17:26:16.952Z,0.82
2023-01-26T17:28:45.271Z,1.00
2023-01-26T17:31:17.485Z,1.05
2023-01-26T17:33:46.572Z,0.63
2023-01-26T17:36:17.035Z,0.90
2023-01-26T17:38:45.126Z,1.10
2023-01-26T17:41:13.123Z,1.15
2023-01-26T17:43:41.078Z,0.70
2023-01-26T17:46:11.954Z,0.80
2023-01-26T17:48:40.224Z,1.02
2023-01-26T17:51:09.857Z,1.00
2023-01-26T17:53:40.293Z,1.02
2023-01-26T17:56:09.500Z,0.95
2023-01-26T17:58:38.082Z,0.80
2023-01-26T18:01:07.473Z,0.80
2023-01-26T18:03:36.024Z,0.88
2023-01-26T18:06:03.968Z,1.05
2023-01-26T18:08:32.008Z,0.90
2023-01-26T18:11:02.564Z,1.02
2023-01-26T18:13:31.884Z,1.35
2023-01-26T18:16:00.418Z,1.58
2023-01-26T18:18:30.632Z,2.55
2023-01-26T18:20:58.679Z,1.42
2023-01-26T18:23:26.733Z,0.98
2023-01-26T18:25:54.789Z,1.65
2023-01-26T18:28:24.154Z,1.10
2023-01-26T18:30:52.180Z,1.25
2023-01-26T18:33:20.125Z,1.30
2023-01-26T18:35:48.066Z,1.00
2023-01-26T18:38:16.136Z,1.55
2023-01-26T18:40:44.131Z,1.55
2023-01-26T18:43:12.125Z,1.27
2023-01-26T18:45:43.524Z,1.40
2023-01-26T18:48:11.437Z,1.20
2023-01-26T18:50:39.559Z,1.20
2023-01-26T18:53:07.520Z,1.17
2023-01-26T18:55:35.554Z,1.05
2023-01-26T18:58:03.579Z,1.23
2023-01-26T19:00:31.690Z,1.40
2023-01-26T19:03:00.947Z,1.00
2023-01-26T19:05:29.483Z,1.10
2023-01-26T19:07:57.509Z,0.95
2023-01-26T19:10:25.519Z,1.10
2023-01-26T19:12:53.616Z,0.82
2023-01-26T19:15:21.614Z,1.08
2023-01-26T19:17:49.558Z,1.10
2023-01-26T19:20:19.371Z,0.82
2023-01-26T19:22:54.071Z,1.02
2023-01-26T19:25:22.134Z,0.80
2023-01-26T19:27:50.165Z,0.85
2023-01-26T19:30:18.856Z,0.60
2023-01-26T19:33:03.155Z,0.80
2023-01-26T19:35:32.584Z,0.70
2023-01-26T19:38:00.670Z,1.05
2023-01-26T19:40:29.999Z,1.52
2023-01-26T19:42:57.953Z,0.85
2023-01-26T19:45:26.100Z,1.00
2023-01-26T19:47:54.069Z,0.75
2023-01-26T19:50:22.076Z,0.70
2023-01-26T19:52:51.660Z,0.70
2023-01-26T19:55:19.639Z,0.85
2023-01-26T19:57:47.699Z,0.90
2023-01-26T20:00:16.561Z,0.73
2023-01-26T20:02:44.707Z,0.82
2023-01-26T20:05:12.858Z,0.88
2023-01-26T20:07:42.271Z,0.68
2023-01-26T20:10:12.972Z,0.70
2023-01-26T20:12:40.958Z,0.80
2023-01-26T20:15:10.822Z,0.57
2023-01-26T20:20:07.822Z,0.82
2023-01-26T20:22:37.362Z,0.63
2023-01-26T20:25:06.651Z,0.73
2023-01-26T20:27:36.044Z,0.70
2023-01-26T20:30:04.716Z,0.60
2023-01-26T20:32:33.573Z,0.80
2023-01-26T20:35:02.417Z,0.68
2023-01-26T20:37:30.346Z,0.70
2023-01-26T20:39:58.483Z,1.20
2023-01-26T20:42:26.427Z,0.73
2023-01-26T20:44:57.503Z,0.63
2023-01-26T20:47:25.654Z,0.80
2023-01-26T20:49:56.059Z,0.80
2023-01-26T20:52:24.538Z,1.00
2023-01-26T20:54:53.346Z,0.90
2023-01-26T20:57:21.322Z,0.80
2023-01-26T20:59:49.359Z,1.10
2023-01-26T21:02:18.790Z,0.90
2023-01-26T21:04:47.311Z,0.70
2023-01-26T21:07:15.301Z,0.73
2023-01-26T21:09:43.278Z,0.93
2023-01-26T21:12:11.197Z,1.65
2023-01-26T21:14:39.232Z,1.10
2023-01-26T21:17:07.938Z,0.90
2023-01-26T21:19:37.299Z,0.65
2023-01-26T21:22:05.105Z,0.90
2023-01-26T21:24:33.064Z,0.95
2023-01-26T21:27:02.747Z,0.85
2023-01-26T21:29:30.676Z,0.88
2023-01-26T21:31:58.569Z,1.00
2023-01-26T21:34:26.590Z,0.90
2023-01-26T21:36:55.911Z,1.00
2023-01-26T21:39:23.772Z,0.82
2023-01-26T21:41:57.755Z,0.98
2023-01-26T21:44:27.082Z,1.00
2023-01-26T21:46:56.922Z,1.20
2023-01-26T21:49:25.649Z,0.88
2023-01-26T21:52:12.799Z,0.70
2023-01-26T21:54:40.706Z,0.80
2023-01-26T21:57:25.337Z,1.00
2023-01-26T21:59:53.391Z,0.90
2023-01-26T22:02:21.361Z,1.35
2023-01-26T22:04:49.353Z,0.80
2023-01-26T22:07:18.652Z,0.80
2023-01-26T22:09:49.428Z,0.80
2023-01-26T22:12:17.659Z,1.65
2023-01-26T22:14:45.467Z,0.80
2023-01-26T22:17:13.320Z,1.13
2023-01-26T22:19:41.188Z,1.17
2023-01-26T22:22:09.203Z,0.75
2023-01-26T22:24:38.439Z,0.85
2023-01-26T22:27:06.671Z,0.90
2023-01-26T22:29:34.685Z,0.90
2023-01-26T22:32:03.780Z,0.82
2023-01-26T22:34:32.549Z,0.77
2023-01-26T22:37:00.512Z,0.63
2023-01-26T22:39:28.544Z,1.75
2023-01-26T22:41:57.808Z,0.90
2023-01-26T22:44:25.879Z,0.80
2023-01-26T22:46:56.830Z,1.23
2023-01-26T22:49:27.553Z,0.95
2023-01-26T22:51:55.433Z,0.80
2023-01-26T22:54:23.429Z,1.58
2023-01-26T22:56:51.404Z,1.10
2023-01-26T22:59:20.630Z,1.05
2023-01-26T23:01:48.618Z,0.70
2023-01-26T23:04:16.664Z,1.00
2023-01-26T23:06:44.646Z,0.80
2023-01-26T23:09:12.596Z,1.02
2023-01-26T23:11:40.531Z,0.70
2023-01-26T23:14:08.469Z,1.02
2023-01-26T23:16:38.054Z,1.15
2023-01-26T23:19:05.968Z,0.70
2023-01-26T23:21:33.979Z,0.63
2023-01-26T23:24:02.003Z,0.65
2023-01-26T23:26:29.867Z,0.70
2023-01-26T23:28:57.798Z,0.50
2023-01-26T23:31:25.829Z,1.02
2023-01-26T23:33:55.168Z,0.98
2023-01-26T23:36:23.084Z,0.77
2023-01-26T23:38:51.152Z,0.60
2023-01-26T23:41:19.868Z,0.50
2023-01-26T23:43:47.760Z,0.70
2023-01-26T23:46:15.833Z,0.70
2023-01-26T23:48:43.758Z,0.90
2023-01-26T23:51:13.481Z,0.55
2023-01-26T23:53:41.414Z,0.70
2023-01-26T23:56:11.506Z,0.80
2023-01-26T23:58:39.554Z,0.70
